createdAt,value
2022-09-10T00:00:44.654Z,0.60
2022-09-10T00:01:46.109Z,0.90
2022-09-10T00:02:47.469Z,0.77
2022-09-10T00:03:49.960Z,0.70
2022-09-10T00:04:51.629Z,0.60
2022-09-10T00:05:53.304Z,0.67
2022-09-10T00:06:55.304Z,0.60
2022-09-10T00:07:56.710Z,0.57
2022-09-10T00:08:58.656Z,0.60
2022-09-10T00:10:00.000Z,0.63
2022-09-10T00:11:04.844Z,0.50
2022-09-10T00:12:06.319Z,0.60
2022-09-10T00:13:08.097Z,0.83
2022-09-10T00:14:15.070Z,0.50
2022-09-10T00:15:17.843Z,0.50
2022-09-10T00:16:19.191Z,0.50
2022-09-10T00:17:20.546Z,0.50
2022-09-10T00:18:22.222Z,0.57
2022-09-10T00:19:23.566Z,0.57
2022-09-10T00:20:24.965Z,0.53
2022-09-10T00:21:26.527Z,0.50
2022-09-10T00:22:27.841Z,0.50
2022-09-10T00:23:29.918Z,0.47
2022-09-10T00:24:33.682Z,0.47
2022-09-10T00:25:35.316Z,0.53
2022-09-10T00:26:39.124Z,0.43
2022-09-10T00:27:40.801Z,0.50
2022-09-10T00:28:43.097Z,0.40
2022-09-10T00:29:44.429Z,0.70
2022-09-10T00:30:46.799Z,0.60
2022-09-10T00:31:48.742Z,0.60
2022-09-10T00:32:52.610Z,0.50
2022-09-10T00:33:54.721Z,0.50
2022-09-10T00:34:56.166Z,0.50
2022-09-10T00:35:58.212Z,0.60
2022-09-10T00:37:00.037Z,0.60
2022-09-10T00:38:01.970Z,0.60
2022-09-10T00:39:06.107Z,0.50
2022-09-10T00:40:07.710Z,0.60
2022-09-10T00:41:09.613Z,0.57
2022-09-10T00:42:11.616Z,0.60
2022-09-10T00:43:18.677Z,0.50
2022-09-10T00:44:40.870Z,0.80
2022-09-10T00:45:44.077Z,0.63
2022-09-10T00:46:47.527Z,0.57
2022-09-10T00:47:50.329Z,0.70
2022-09-10T00:48:52.416Z,0.80
2022-09-10T00:49:57.512Z,0.57
2022-09-10T00:51:04.265Z,0.50
2022-09-10T00:52:05.980Z,0.77
2022-09-10T00:53:08.748Z,0.60
2022-09-10T00:54:10.161Z,0.70
2022-09-10T00:55:12.392Z,0.80
2022-09-10T00:56:14.348Z,0.70
2022-09-10T00:57:18.508Z,0.83
2022-09-10T00:58:20.732Z,0.67
2022-09-10T00:59:23.622Z,0.43
2022-09-10T01:00:24.949Z,0.60
2022-09-10T01:01:26.442Z,0.77
2022-09-10T01:02:28.027Z,0.60
2022-09-10T01:03:31.445Z,0.70
2022-09-10T01:04:33.152Z,0.67
2022-09-10T01:05:34.619Z,0.50
2022-09-10T01:06:36.752Z,0.50
2022-09-10T01:07:38.234Z,0.50
2022-09-10T01:08:40.140Z,0.73
2022-09-10T01:09:42.242Z,0.60
2022-09-10T01:11:04.235Z,0.60
2022-09-10T01:12:19.860Z,0.47
2022-09-10T01:13:30.278Z,0.57
2022-09-10T01:15:07.204Z,0.50
2022-09-10T01:16:17.157Z,0.57
2022-09-10T01:17:25.661Z,0.50
2022-09-10T01:18:50.233Z,0.50
2022-09-10T01:20:11.279Z,0.67
2022-09-10T01:21:21.771Z,0.50
2022-09-10T01:22:28.761Z,0.57
2022-09-10T01:23:46.158Z,0.60
2022-09-10T01:24:56.407Z,0.60
2022-09-10T01:26:04.192Z,0.70
2022-09-10T01:27:25.163Z,0.70
2022-09-10T01:28:40.321Z,0.70
2022-09-10T01:29:44.520Z,0.57
2022-09-10T01:30:48.906Z,0.73
2022-09-10T01:32:02.160Z,0.70
2022-09-10T01:33:23.376Z,0.60
2022-09-10T01:34:34.353Z,0.47
2022-09-10T01:35:39.184Z,0.60
2022-09-10T01:36:45.555Z,0.80
2022-09-10T01:37:53.280Z,0.47
2022-09-10T01:38:55.467Z,0.60
2022-09-10T01:39:59.388Z,0.70
2022-09-10T01:41:02.269Z,0.40
2022-09-10T01:42:09.131Z,0.43
2022-09-10T01:43:11.659Z,0.60
2022-09-10T01:44:37.340Z,0.40
2022-09-10T01:45:44.930Z,0.60
2022-09-10T01:46:59.563Z,0.50
2022-09-10T01:48:12.616Z,0.60
2022-09-10T01:49:37.886Z,0.53
2022-09-10T01:50:42.805Z,0.60
2022-09-10T01:51:54.213Z,0.63
2022-09-10T01:53:13.951Z,0.50
2022-09-10T01:54:40.258Z,0.50
2022-09-10T01:55:46.401Z,0.50
2022-09-10T01:57:02.756Z,0.47
2022-09-10T01:58:06.977Z,0.40
2022-09-10T01:59:39.626Z,0.40
2022-09-10T02:00:43.383Z,0.80
2022-09-10T02:01:47.938Z,0.63
2022-09-10T02:02:52.489Z,0.43
2022-09-10T02:03:59.513Z,0.60
2022-09-10T02:05:01.959Z,0.50
2022-09-10T02:06:04.466Z,0.50
2022-09-10T02:07:10.912Z,0.60
2022-09-10T02:08:14.683Z,0.50
2022-09-10T02:09:17.282Z,0.50
2022-09-10T02:10:19.271Z,0.50
2022-09-10T02:11:21.841Z,0.60
2022-09-10T02:12:25.192Z,0.53
2022-09-10T02:13:33.099Z,0.60
2022-09-10T02:15:04.411Z,0.57
2022-09-10T02:16:31.620Z,0.57
2022-09-10T02:17:37.478Z,0.50
2022-09-10T02:18:39.866Z,0.70
2022-09-10T02:19:42.614Z,0.70
2022-09-10T02:20:45.341Z,0.63
2022-09-10T02:21:47.749Z,0.40
2022-09-10T02:22:51.916Z,0.50
2022-09-10T02:23:58.908Z,0.63
2022-09-10T02:25:00.234Z,0.80
2022-09-10T02:26:01.647Z,0.60
2022-09-10T02:27:03.254Z,0.65
2022-09-10T02:28:05.629Z,0.70
2022-09-10T02:29:08.568Z,0.63
2022-09-10T02:30:11.679Z,0.60
2022-09-10T02:31:13.873Z,0.60
2022-09-10T02:32:15.739Z,0.60
2022-09-10T02:33:17.179Z,0.50
2022-09-10T02:34:20.207Z,0.50
2022-09-10T02:35:22.979Z,0.60
2022-09-10T02:36:25.948Z,0.60
2022-09-10T02:37:28.220Z,0.60
2022-09-10T02:38:30.054Z,0.60
2022-09-10T02:39:31.394Z,0.47
2022-09-10T02:40:33.081Z,0.60
2022-09-10T02:41:35.123Z,0.57
2022-09-10T02:42:38.214Z,0.80
2022-09-10T02:43:40.228Z,0.80
2022-09-10T02:44:41.579Z,0.50
2022-09-10T02:45:43.242Z,0.77
2022-09-10T02:46:45.069Z,1.07
2022-09-10T02:47:46.397Z,0.70
2022-09-10T02:48:50.393Z,0.80
2022-09-10T02:49:51.735Z,0.70
2022-09-10T02:50:53.463Z,0.53
2022-09-10T02:51:55.153Z,0.60
2022-09-10T02:52:57.977Z,0.50
2022-09-10T02:53:59.305Z,0.75
2022-09-10T02:55:00.991Z,0.50
2022-09-10T02:56:03.045Z,0.70
2022-09-10T02:57:04.491Z,0.60
2022-09-10T02:58:05.877Z,0.60
2022-09-10T02:59:07.244Z,0.70
2022-09-10T03:00:10.323Z,0.60
2022-09-10T03:01:14.678Z,0.50
2022-09-10T03:02:17.224Z,0.57
2022-09-10T03:03:18.581Z,0.57
2022-09-10T03:04:20.147Z,0.70
2022-09-10T03:05:21.559Z,0.50
2022-09-10T03:06:23.585Z,0.80
2022-09-10T03:07:24.883Z,0.60
2022-09-10T03:08:29.226Z,0.57
2022-09-10T03:09:30.787Z,0.60
2022-09-10T03:10:33.080Z,0.60
2022-09-10T03:11:34.844Z,0.70
2022-09-10T03:12:36.595Z,0.70
2022-09-10T03:13:38.019Z,0.70
2022-09-10T03:14:39.414Z,1.00
2022-09-10T03:15:42.147Z,0.60
2022-09-10T03:16:43.557Z,0.60
2022-09-10T03:17:44.873Z,0.70
2022-09-10T03:18:46.347Z,0.80
2022-09-10T03:19:47.657Z,0.80
2022-09-10T03:20:49.501Z,0.50
2022-09-10T03:21:50.804Z,0.57
2022-09-10T03:22:52.157Z,0.73
2022-09-10T03:23:54.027Z,0.70
2022-09-10T03:24:59.481Z,0.57
2022-09-10T03:26:00.835Z,0.60
2022-09-10T03:27:02.177Z,0.60
2022-09-10T03:28:03.722Z,0.53
2022-09-10T03:29:05.637Z,0.53
2022-09-10T03:30:11.672Z,0.90
2022-09-10T03:31:13.997Z,0.50
2022-09-10T03:32:19.217Z,0.80
2022-09-10T03:33:21.703Z,0.70
2022-09-10T03:34:23.021Z,0.43
2022-09-10T03:35:24.609Z,0.70
2022-09-10T03:36:28.275Z,0.60
2022-09-10T03:37:31.276Z,0.50
2022-09-10T03:38:32.640Z,0.50
2022-09-10T03:39:34.071Z,0.77
2022-09-10T03:40:36.765Z,0.60
2022-09-10T03:41:38.084Z,0.53
2022-09-10T03:42:39.553Z,0.60
2022-09-10T03:43:41.226Z,0.60
2022-09-10T03:44:44.530Z,0.63
2022-09-10T03:45:48.356Z,0.60
2022-09-10T03:46:51.178Z,0.90
2022-09-10T03:47:53.378Z,1.03
2022-09-10T03:48:55.538Z,0.87
2022-09-10T03:49:59.700Z,0.70
2022-09-10T03:51:01.012Z,0.70
2022-09-10T03:52:03.985Z,0.53
2022-09-10T03:53:09.337Z,0.80
2022-09-10T03:54:10.981Z,0.40
2022-09-10T03:55:13.595Z,0.40
2022-09-10T03:56:19.830Z,0.70
2022-09-10T03:57:21.987Z,0.50
2022-09-10T03:58:23.846Z,0.60
2022-09-10T03:59:26.269Z,0.80
2022-09-10T04:00:30.219Z,0.43
2022-09-10T04:01:31.809Z,0.60
2022-09-10T04:02:33.186Z,0.70
2022-09-10T04:03:34.503Z,0.50
2022-09-10T04:04:37.312Z,0.80
2022-09-10T04:05:39.133Z,0.93
2022-09-10T04:06:40.692Z,0.60
2022-09-10T04:07:42.823Z,0.80
2022-09-10T04:08:44.140Z,0.63
2022-09-10T04:09:48.055Z,0.80
2022-09-10T04:10:49.370Z,0.63
2022-09-10T04:11:50.985Z,0.80
2022-09-10T04:12:55.410Z,0.70
2022-09-10T04:13:57.215Z,0.80
2022-09-10T04:15:01.564Z,0.73
2022-09-10T04:16:03.006Z,0.60
2022-09-10T04:17:05.660Z,0.70
2022-09-10T04:18:09.424Z,0.70
2022-09-10T04:19:10.795Z,0.73
2022-09-10T04:20:12.397Z,0.87
2022-09-10T04:21:14.435Z,0.80
2022-09-10T04:22:15.809Z,0.60
2022-09-10T04:23:17.834Z,0.60
2022-09-10T04:24:19.607Z,0.70
2022-09-10T04:25:22.483Z,0.73
2022-09-10T04:26:23.790Z,0.60
2022-09-10T04:27:26.622Z,0.60
2022-09-10T04:28:28.379Z,0.70
2022-09-10T04:29:29.828Z,0.70
2022-09-10T04:30:31.131Z,0.80
2022-09-10T04:31:32.524Z,0.83
2022-09-10T04:32:40.987Z,0.70
2022-09-10T04:33:44.845Z,0.70
2022-09-10T04:34:46.172Z,0.80
2022-09-10T04:35:48.010Z,0.60
2022-09-10T04:36:49.929Z,0.50
2022-09-10T04:37:52.504Z,0.70
2022-09-10T04:38:54.721Z,0.63
2022-09-10T04:39:56.165Z,0.77
2022-09-10T04:40:58.122Z,0.70
2022-09-10T04:41:59.952Z,0.50
2022-09-10T04:43:01.758Z,0.60
2022-09-10T04:44:03.491Z,0.60
2022-09-10T04:45:05.335Z,0.77
2022-09-10T04:46:07.710Z,0.70
2022-09-10T04:47:12.249Z,0.80
2022-09-10T04:48:13.586Z,0.80
2022-09-10T04:49:14.890Z,0.70
2022-09-10T04:50:16.319Z,1.00
2022-09-10T04:51:40.018Z,0.70
2022-09-10T04:52:43.196Z,0.70
2022-09-10T04:53:45.171Z,0.60
2022-09-10T04:54:46.746Z,0.80
2022-09-10T04:55:49.091Z,0.60
2022-09-10T04:56:52.165Z,0.60
2022-09-10T04:57:54.140Z,0.77
2022-09-10T04:58:55.685Z,0.70
2022-09-10T04:59:57.119Z,0.80
2022-09-10T05:00:58.650Z,0.83
2022-09-10T05:02:02.026Z,1.00
2022-09-10T05:03:05.245Z,0.97
2022-09-10T05:04:07.007Z,0.70
2022-09-10T05:05:10.964Z,0.80
2022-09-10T05:06:12.363Z,0.70
2022-09-10T05:07:14.057Z,1.00
2022-09-10T05:08:15.666Z,0.83
2022-09-10T05:09:23.996Z,0.60
2022-09-10T05:10:25.699Z,0.80
2022-09-10T05:11:27.383Z,0.80
2022-09-10T05:12:28.656Z,0.80
2022-09-10T05:13:31.065Z,0.70
2022-09-10T05:14:33.854Z,0.87
2022-09-10T05:15:35.767Z,0.70
2022-09-10T05:16:39.756Z,0.80
2022-09-10T05:17:41.379Z,0.70
2022-09-10T05:18:42.875Z,0.67
2022-09-10T05:19:45.353Z,0.93
2022-09-10T05:20:46.783Z,0.70
2022-09-10T05:21:48.645Z,0.77
2022-09-10T05:22:50.535Z,0.90
2022-09-10T05:23:52.180Z,0.80
2022-09-10T05:24:55.293Z,0.77
2022-09-10T05:25:56.952Z,0.80
2022-09-10T05:26:59.183Z,0.83
2022-09-10T05:28:01.046Z,0.73
2022-09-10T05:29:02.371Z,0.90
2022-09-10T05:30:04.730Z,1.00
2022-09-10T05:31:07.196Z,0.60
2022-09-10T05:32:09.436Z,0.73
2022-09-10T05:33:10.818Z,0.73
2022-09-10T05:34:12.140Z,0.90
2022-09-10T05:35:13.812Z,0.77
2022-09-10T05:36:17.805Z,0.70
2022-09-10T05:37:19.159Z,0.70
2022-09-10T05:38:20.897Z,0.90
2022-09-10T05:39:22.605Z,0.93
2022-09-10T05:40:25.369Z,1.00
2022-09-10T05:41:28.253Z,0.70
2022-09-10T05:42:31.509Z,1.10
2022-09-10T05:43:33.029Z,0.70
2022-09-10T05:44:35.078Z,0.80
2022-09-10T05:45:37.768Z,0.80
2022-09-10T05:46:40.402Z,1.07
2022-09-10T05:47:47.642Z,0.60
2022-09-10T05:48:54.231Z,0.80
2022-09-10T05:49:56.338Z,0.80
2022-09-10T05:50:58.075Z,0.90
2022-09-10T05:51:59.495Z,0.70
2022-09-10T05:53:01.196Z,0.70
2022-09-10T05:54:04.190Z,0.83
2022-09-10T05:55:07.149Z,0.80
2022-09-10T05:56:08.491Z,0.60
2022-09-10T05:57:11.474Z,0.93
2022-09-10T05:58:13.714Z,0.93
2022-09-10T05:59:16.337Z,0.80
2022-09-10T06:00:24.857Z,0.97
2022-09-10T06:01:33.752Z,0.90
2022-09-10T06:02:37.907Z,0.73
2022-09-10T06:03:40.348Z,1.07
2022-09-10T06:04:41.664Z,1.00
2022-09-10T06:05:53.103Z,1.00
2022-09-10T06:06:58.983Z,0.70
2022-09-10T06:08:04.252Z,1.20
2022-09-10T06:09:09.614Z,1.00
2022-09-10T06:10:19.954Z,1.27
2022-09-10T06:11:24.429Z,0.93
2022-09-10T06:12:26.370Z,0.93
2022-09-10T06:13:28.463Z,0.80
2022-09-10T06:14:31.685Z,0.80
2022-09-10T06:15:34.329Z,0.77
2022-09-10T06:16:35.678Z,0.70
2022-09-10T06:17:38.375Z,0.70
2022-09-10T06:18:40.112Z,1.00
2022-09-10T06:19:44.493Z,0.77
2022-09-10T06:20:47.785Z,1.00
2022-09-10T06:21:52.309Z,1.00
2022-09-10T06:22:54.733Z,0.97
2022-09-10T06:23:56.361Z,0.80
2022-09-10T06:24:59.797Z,0.80
2022-09-10T06:26:04.421Z,0.90
2022-09-10T06:27:07.030Z,0.87
2022-09-10T06:28:09.628Z,1.00
2022-09-10T06:29:11.580Z,1.03
2022-09-10T06:30:14.662Z,0.90
2022-09-10T06:31:20.057Z,1.00
2022-09-10T06:32:24.157Z,1.00
2022-09-10T06:33:25.531Z,1.13
2022-09-10T06:34:28.179Z,1.10
2022-09-10T06:35:31.207Z,1.07
2022-09-10T06:36:33.896Z,0.93
2022-09-10T06:37:35.880Z,1.00
2022-09-10T06:38:40.966Z,0.90
2022-09-10T06:39:43.024Z,0.80
2022-09-10T06:40:55.053Z,1.00
2022-09-10T06:41:56.697Z,0.80
2022-09-10T06:43:36.875Z,0.90
2022-09-10T06:44:44.242Z,0.83
2022-09-10T06:46:24.867Z,1.20
2022-09-10T06:49:02.683Z,0.90
2022-09-10T06:50:08.969Z,1.20
2022-09-10T06:51:13.054Z,0.80
2022-09-10T06:52:14.711Z,1.17
2022-09-10T06:53:16.636Z,0.90
2022-09-10T06:54:18.823Z,1.20
2022-09-10T06:55:20.091Z,1.00
2022-09-10T06:56:21.685Z,1.07
2022-09-10T06:57:26.626Z,1.10
2022-09-10T06:58:30.286Z,1.13
2022-09-10T06:59:31.605Z,1.47
2022-09-10T07:00:33.135Z,1.77
2022-09-10T07:01:35.778Z,1.50
2022-09-10T07:02:37.133Z,1.17
2022-09-10T07:03:39.481Z,1.27
2022-09-10T07:04:40.788Z,1.27
2022-09-10T07:05:42.644Z,1.30
2022-09-10T07:06:46.042Z,1.03
2022-09-10T07:07:50.684Z,1.07
2022-09-10T07:08:56.816Z,1.97
2022-09-10T07:09:58.845Z,1.40
2022-09-10T07:11:01.140Z,0.93
2022-09-10T07:12:05.336Z,1.43
2022-09-10T07:13:13.245Z,1.30
2022-09-10T07:14:15.390Z,1.37
2022-09-10T07:15:20.122Z,1.20
2022-09-10T07:16:23.013Z,1.30
2022-09-10T07:17:31.738Z,1.40
2022-09-10T07:18:34.896Z,1.10
2022-09-10T07:19:37.675Z,1.00
2022-09-10T07:20:46.360Z,0.97
2022-09-10T07:21:47.681Z,1.10
2022-09-10T07:22:53.361Z,1.13
2022-09-10T07:23:56.437Z,1.20
2022-09-10T07:24:57.762Z,1.00
2022-09-10T07:26:08.021Z,1.20
2022-09-10T07:27:12.207Z,1.13
2022-09-10T07:28:18.085Z,1.20
2022-09-10T07:29:21.456Z,0.90
2022-09-10T07:30:22.788Z,1.40
2022-09-10T07:31:29.738Z,1.07
2022-09-10T07:32:33.611Z,0.97
2022-09-10T07:33:41.204Z,1.27
2022-09-10T07:34:43.060Z,1.27
2022-09-10T07:35:46.148Z,1.23
2022-09-10T07:36:48.732Z,1.33
2022-09-10T07:37:50.100Z,1.10
2022-09-10T07:38:57.513Z,1.40
2022-09-10T07:39:59.843Z,1.23
2022-09-10T07:41:01.673Z,1.20
2022-09-10T07:42:03.137Z,1.13
2022-09-10T07:43:09.764Z,1.20
2022-09-10T07:44:28.535Z,1.40
2022-09-10T07:45:34.270Z,1.40
2022-09-10T07:46:38.013Z,1.27
2022-09-10T07:47:44.441Z,1.00
2022-09-10T07:48:48.564Z,1.27
2022-09-10T07:49:52.534Z,1.20
2022-09-10T07:51:00.987Z,1.37
2022-09-10T07:52:03.256Z,1.30
2022-09-10T07:53:11.139Z,1.27
2022-09-10T07:54:15.584Z,1.10
2022-09-10T07:55:21.177Z,1.33
2022-09-10T07:56:23.383Z,1.50
2022-09-10T07:57:24.993Z,1.27
2022-09-10T07:58:27.851Z,1.20
2022-09-10T07:59:29.322Z,1.10
2022-09-10T08:00:36.766Z,1.20
2022-09-10T08:01:41.413Z,1.30
2022-09-10T08:02:46.797Z,1.40
2022-09-10T08:03:56.207Z,1.40
2022-09-10T08:04:57.583Z,1.13
2022-09-10T08:06:02.941Z,1.07
2022-09-10T08:07:04.503Z,1.83
2022-09-10T08:08:10.497Z,1.50
2022-09-10T08:09:11.999Z,1.10
2022-09-10T08:10:20.850Z,1.13
2022-09-10T08:11:24.246Z,1.63
2022-09-10T08:12:27.555Z,1.30
2022-09-10T08:13:29.927Z,1.33
2022-09-10T08:14:32.456Z,1.47
2022-09-10T08:15:35.992Z,1.53
2022-09-10T08:16:41.219Z,1.80
2022-09-10T08:17:46.371Z,1.40
2022-09-10T08:18:48.844Z,1.50
2022-09-10T08:19:50.960Z,1.47
2022-09-10T08:20:55.416Z,1.47
2022-09-10T08:21:56.962Z,1.10
2022-09-10T08:23:03.869Z,1.23
2022-09-10T08:24:22.496Z,0.90
2022-09-10T08:25:27.587Z,1.02
2022-09-10T08:26:31.164Z,2.00
2022-09-10T08:27:35.130Z,1.10
2022-09-10T08:28:39.939Z,1.00
2022-09-10T08:29:42.652Z,1.20
2022-09-10T08:30:56.758Z,1.13
2022-09-10T08:31:58.853Z,1.20
2022-09-10T08:33:04.157Z,1.00
2022-09-10T08:34:10.658Z,1.23
2022-09-10T08:35:14.460Z,0.90
2022-09-10T08:36:16.926Z,1.73
2022-09-10T08:37:30.688Z,0.98
2022-09-10T08:38:43.049Z,0.77
2022-09-10T08:39:46.455Z,1.10
2022-09-10T08:40:48.985Z,0.98
2022-09-10T08:41:55.783Z,1.05
2022-09-10T08:42:58.582Z,1.20
2022-09-10T08:44:03.860Z,0.90
2022-09-10T08:45:11.892Z,1.20
2022-09-10T08:46:16.966Z,1.05
2022-09-10T08:47:30.941Z,1.48
2022-09-10T08:48:37.540Z,1.20
2022-09-10T08:49:47.953Z,1.17
2022-09-10T08:50:52.894Z,1.20
2022-09-10T08:51:58.566Z,1.13
2022-09-10T08:53:05.465Z,1.50
2022-09-10T08:54:11.414Z,1.30
2022-09-10T08:55:18.489Z,1.02
2022-09-10T08:56:22.899Z,1.10
2022-09-10T08:57:28.074Z,1.50
2022-09-10T08:58:41.315Z,1.15
2022-09-10T08:59:44.880Z,1.30
2022-09-10T09:00:46.705Z,1.00
2022-09-10T09:02:22.433Z,1.10
2022-09-10T09:03:45.304Z,1.35
2022-09-10T09:04:50.160Z,1.00
2022-09-10T09:05:58.212Z,1.00
2022-09-10T09:07:12.550Z,0.90
2022-09-10T09:08:15.620Z,1.08
2022-09-10T09:09:17.082Z,1.15
2022-09-10T09:10:25.777Z,1.10
2022-09-10T09:11:36.888Z,0.95
2022-09-10T09:12:50.217Z,1.17
2022-09-10T09:14:10.147Z,1.08
2022-09-10T09:15:17.205Z,1.20
2022-09-10T09:16:37.370Z,1.30
2022-09-10T09:17:56.296Z,1.00
2022-09-10T09:19:07.424Z,1.15
2022-09-10T09:20:19.376Z,1.20
2022-09-10T09:21:29.329Z,1.33
2022-09-10T09:22:41.454Z,1.67
2022-09-10T09:24:13.486Z,1.33
2022-09-10T09:25:44.512Z,1.40
2022-09-10T09:26:49.834Z,1.15
2022-09-10T09:27:54.274Z,1.10
2022-09-10T09:29:05.340Z,1.00
2022-09-10T09:30:07.887Z,1.17
2022-09-10T09:31:16.930Z,1.05
2022-09-10T09:32:20.372Z,1.35
2022-09-10T09:33:23.071Z,1.00
2022-09-10T09:34:39.299Z,1.40
2022-09-10T09:35:45.116Z,0.77
2022-09-10T09:36:48.985Z,1.13
2022-09-10T09:37:57.067Z,0.98
2022-09-10T09:38:58.443Z,1.10
2022-09-10T09:40:04.810Z,0.90
2022-09-10T09:41:14.722Z,1.00
2022-09-10T09:42:33.231Z,1.10
2022-09-10T09:43:38.263Z,1.00
2022-09-10T09:44:51.845Z,1.00
2022-09-10T09:45:57.945Z,1.13
2022-09-10T09:47:03.310Z,1.02
2022-09-10T09:48:06.728Z,1.00
2022-09-10T09:49:10.311Z,1.33
2022-09-10T09:50:12.738Z,1.10
2022-09-10T09:51:21.119Z,1.00
2022-09-10T09:52:23.929Z,1.10
2022-09-10T09:53:26.333Z,1.00
2022-09-10T09:55:54.101Z,0.98
2022-09-10T09:57:01.388Z,1.15
2022-09-10T09:58:22.194Z,0.77
2022-09-10T09:59:28.695Z,0.80
2022-09-10T10:00:36.671Z,1.10
2022-09-10T10:01:40.392Z,0.90
2022-09-10T10:02:44.950Z,0.80
2022-09-10T10:03:53.664Z,0.77
2022-09-10T10:05:09.651Z,0.90
2022-09-10T10:06:11.806Z,1.20
2022-09-10T10:07:24.600Z,0.90
2022-09-10T10:08:30.317Z,0.80
2022-09-10T10:09:33.647Z,1.10
2022-09-10T10:10:51.579Z,1.17
2022-09-10T10:11:55.905Z,1.10
2022-09-10T10:12:58.095Z,0.90
2022-09-10T10:14:20.348Z,1.10
2022-09-10T10:15:42.491Z,1.00
2022-09-10T10:16:47.247Z,1.02
2022-09-10T10:17:49.544Z,1.13
2022-09-10T10:18:50.884Z,1.10
2022-09-10T10:19:58.849Z,0.88
2022-09-10T10:21:19.014Z,0.98
2022-09-10T10:22:21.131Z,1.05
2022-09-10T10:23:32.399Z,1.00
2022-09-10T10:24:33.984Z,0.98
2022-09-10T10:25:44.788Z,1.33
2022-09-10T10:26:48.615Z,1.08
2022-09-10T10:27:51.275Z,0.93
2022-09-10T10:28:58.564Z,0.90
2022-09-10T10:30:02.866Z,0.80
2022-09-10T10:31:04.613Z,1.00
2022-09-10T10:32:15.362Z,1.20
2022-09-10T10:33:19.156Z,1.10
2022-09-10T10:34:20.443Z,0.82
2022-09-10T10:35:27.348Z,0.70
2022-09-10T10:36:34.662Z,1.17
2022-09-10T10:37:47.957Z,1.15
2022-09-10T10:39:09.529Z,0.93
2022-09-10T10:40:14.434Z,1.20
2022-09-10T10:41:35.778Z,0.75
2022-09-10T10:42:37.077Z,0.75
2022-09-10T10:43:42.097Z,0.93
2022-09-10T10:44:47.951Z,0.90
2022-09-10T10:45:59.392Z,1.38
2022-09-10T10:47:09.538Z,0.82
2022-09-10T10:48:12.277Z,1.10
2022-09-10T10:49:25.839Z,1.02
2022-09-10T10:50:36.476Z,1.20
2022-09-10T10:51:50.188Z,1.00
2022-09-10T10:53:00.770Z,0.93
2022-09-10T10:54:11.343Z,1.48
2022-09-10T10:55:23.144Z,1.17
2022-09-10T10:56:29.660Z,1.30
2022-09-10T10:57:33.349Z,1.02
2022-09-10T10:58:54.539Z,0.90
2022-09-10T11:00:04.921Z,0.90
2022-09-10T11:01:12.323Z,0.90
2022-09-10T11:02:30.543Z,0.90
2022-09-10T11:03:35.553Z,1.25
2022-09-10T11:04:48.825Z,0.93
2022-09-10T11:05:55.959Z,1.10
2022-09-10T11:07:20.521Z,1.08
2022-09-10T11:08:42.225Z,0.85
2022-09-10T11:09:51.713Z,1.02
2022-09-10T11:10:56.131Z,1.00
2022-09-10T11:12:01.025Z,1.00
2022-09-10T11:13:09.355Z,1.20
2022-09-10T11:14:23.141Z,1.08
2022-09-10T11:15:30.610Z,1.00
2022-09-10T11:16:38.476Z,1.45
2022-09-10T11:17:47.166Z,1.17
2022-09-10T11:18:56.368Z,0.93
2022-09-10T11:20:28.365Z,2.22
2022-09-10T11:21:49.468Z,1.15
2022-09-10T11:22:53.243Z,1.65
2022-09-10T11:24:06.941Z,1.20
2022-09-10T11:25:08.490Z,1.20
2022-09-10T11:26:13.423Z,1.10
2022-09-10T11:27:20.595Z,1.10
2022-09-10T11:28:25.134Z,1.33
2022-09-10T11:29:33.836Z,1.30
2022-09-10T11:30:35.747Z,1.60
2022-09-10T11:31:42.696Z,1.20
2022-09-10T11:32:46.616Z,1.17
2022-09-10T11:33:55.361Z,1.20
2022-09-10T11:35:15.547Z,1.30
2022-09-10T11:36:16.825Z,1.50
2022-09-10T11:37:20.182Z,0.90
2022-09-10T11:38:24.766Z,0.98
2022-09-10T11:39:33.906Z,1.33
2022-09-10T11:40:35.206Z,1.35
2022-09-10T11:41:42.057Z,1.35
2022-09-10T11:42:46.647Z,1.42
2022-09-10T11:44:23.065Z,1.33
2022-09-10T11:45:43.007Z,1.40
2022-09-10T11:46:57.598Z,1.42
2022-09-10T11:48:07.818Z,1.55
2022-09-10T11:49:16.142Z,1.80
2022-09-10T11:50:34.285Z,1.17
2022-09-10T11:51:37.238Z,1.20
2022-09-10T11:52:40.137Z,1.35
2022-09-10T11:53:41.543Z,1.75
2022-09-10T11:54:43.817Z,1.07
2022-09-10T11:55:45.503Z,1.33
2022-09-10T11:57:01.021Z,1.48
2022-09-10T11:58:11.548Z,1.20
2022-09-10T11:59:31.366Z,0.95
2022-09-10T12:00:40.916Z,1.25
2022-09-10T12:02:02.623Z,1.13
2022-09-10T12:03:22.797Z,1.20
2022-09-10T12:04:40.070Z,1.05
2022-09-10T12:05:43.584Z,1.27
2022-09-10T12:06:44.874Z,1.45
2022-09-10T12:08:06.140Z,1.15
2022-09-10T12:09:18.682Z,1.50
2022-09-10T12:10:31.617Z,0.98
2022-09-10T12:11:40.211Z,1.20
2022-09-10T12:12:45.926Z,1.23
2022-09-10T12:13:49.362Z,1.58
2022-09-10T12:14:50.837Z,1.23
2022-09-10T12:15:58.216Z,0.93
2022-09-10T12:17:03.385Z,0.80
2022-09-10T12:18:07.275Z,1.15
2022-09-10T12:19:17.557Z,1.20
2022-09-10T12:20:20.870Z,1.30
2022-09-10T12:21:34.541Z,1.35
2022-09-10T12:22:37.908Z,1.30
2022-09-10T12:23:39.736Z,1.20
2022-09-10T12:24:49.857Z,1.08
2022-09-10T12:26:02.733Z,1.00
2022-09-10T12:27:05.260Z,0.95
2022-09-10T12:28:08.094Z,1.10
2022-09-10T12:29:25.746Z,1.20
2022-09-10T12:30:44.973Z,1.17
2022-09-10T12:32:05.865Z,1.25
2022-09-10T12:33:13.202Z,0.75
2022-09-10T12:34:16.039Z,1.10
2022-09-10T12:35:30.298Z,1.30
2022-09-10T12:36:31.576Z,0.95
2022-09-10T12:37:32.938Z,1.08
2022-09-10T12:38:48.073Z,1.00
2022-09-10T12:39:49.666Z,0.98
2022-09-10T12:40:51.853Z,0.90
2022-09-10T12:41:55.233Z,1.05
2022-09-10T12:43:20.157Z,1.20
2022-09-10T12:44:44.142Z,1.17
2022-09-10T12:46:00.742Z,0.73
2022-09-10T12:47:17.215Z,1.20
2022-09-10T12:48:18.823Z,1.48
2022-09-10T12:49:21.044Z,1.10
2022-09-10T12:50:27.961Z,0.90
2022-09-10T12:51:47.932Z,1.10
2022-09-10T12:52:50.649Z,1.10
2022-09-10T12:54:03.813Z,1.10
2022-09-10T12:55:21.204Z,0.90
2022-09-10T12:56:34.733Z,1.30
2022-09-10T12:57:41.194Z,0.93
2022-09-10T12:58:58.930Z,1.10
2022-09-10T13:00:00.316Z,1.00
2022-09-10T13:01:16.835Z,1.17
2022-09-10T13:02:20.405Z,1.10
2022-09-10T13:03:26.334Z,0.90
2022-09-10T13:04:29.194Z,1.33
2022-09-10T13:05:32.036Z,0.90
2022-09-10T13:06:38.732Z,1.13
2022-09-10T13:07:41.483Z,1.20
2022-09-10T13:08:44.927Z,1.00
2022-09-10T13:09:46.752Z,1.25
2022-09-10T13:10:49.845Z,1.20
2022-09-10T13:11:53.969Z,0.90
2022-09-10T13:12:56.977Z,0.80
2022-09-10T13:14:00.104Z,1.15
2022-09-10T13:15:02.785Z,0.85
2022-09-10T13:16:04.846Z,1.00
2022-09-10T13:17:06.413Z,0.90
2022-09-10T13:18:27.952Z,1.20
2022-09-10T13:19:29.314Z,0.90
2022-09-10T13:20:32.214Z,1.00
2022-09-10T13:21:33.548Z,1.35
2022-09-10T13:22:53.784Z,1.38
2022-09-10T13:23:56.431Z,0.98
2022-09-10T13:25:23.855Z,1.30
2022-09-10T13:26:28.413Z,1.33
2022-09-10T13:27:43.407Z,1.15
2022-09-10T13:28:46.680Z,1.17
2022-09-10T13:29:54.025Z,1.33
2022-09-10T13:31:14.200Z,1.27
2022-09-10T13:32:21.968Z,1.10
2022-09-10T13:33:29.321Z,1.80
2022-09-10T13:34:53.040Z,1.55
2022-09-10T13:36:16.485Z,1.50
2022-09-10T13:37:36.738Z,1.40
2022-09-10T13:38:38.718Z,1.60
2022-09-10T13:39:50.155Z,1.55
2022-09-10T13:41:06.652Z,1.42
2022-09-10T13:42:17.536Z,1.30
2022-09-10T13:43:24.838Z,1.38
2022-09-10T13:44:50.283Z,1.63
2022-09-10T13:45:53.755Z,1.50
2022-09-10T13:46:57.880Z,1.35
2022-09-10T13:48:01.673Z,1.30
2022-09-10T13:49:02.963Z,1.42
2022-09-10T13:50:14.131Z,1.45
2022-09-10T13:51:15.636Z,1.65
2022-09-10T13:52:19.350Z,1.45
2022-09-10T13:53:22.084Z,1.23
2022-09-10T13:54:37.664Z,1.42
2022-09-10T13:55:41.566Z,1.40
2022-09-10T13:56:43.724Z,1.50
2022-09-10T13:57:47.930Z,1.42
2022-09-10T13:58:51.433Z,1.23
2022-09-10T13:59:55.490Z,1.25
2022-09-10T14:00:59.218Z,1.52
2022-09-10T14:02:03.887Z,1.48
2022-09-10T14:03:13.993Z,1.50
2022-09-10T14:04:26.887Z,1.75
2022-09-10T14:05:35.022Z,1.70
2022-09-10T14:06:36.609Z,1.10
2022-09-10T14:07:38.895Z,1.30
2022-09-10T14:08:44.870Z,0.90
2022-09-10T14:09:48.154Z,1.13
2022-09-10T14:10:57.785Z,1.10
2022-09-10T14:12:01.318Z,1.10
2022-09-10T14:13:03.675Z,0.90
2022-09-10T14:14:17.208Z,1.00
2022-09-10T14:15:22.703Z,0.90
2022-09-10T14:16:39.676Z,0.90
2022-09-10T14:17:43.659Z,0.75
2022-09-10T14:18:48.477Z,0.90
2022-09-10T14:19:57.924Z,0.80
2022-09-10T14:20:59.704Z,0.60
2022-09-10T14:22:01.728Z,0.75
2022-09-10T14:23:10.515Z,0.60
2022-09-10T14:24:45.066Z,0.52
2022-09-10T14:25:47.724Z,0.40
2022-09-10T14:27:09.053Z,0.43
2022-09-10T14:28:24.495Z,0.57
2022-09-10T14:29:28.891Z,1.45
2022-09-10T14:30:31.461Z,0.60
2022-09-10T14:31:37.545Z,0.60
2022-09-10T14:32:40.494Z,0.75
2022-09-10T14:33:42.634Z,0.70
2022-09-10T14:34:44.688Z,0.30
2022-09-10T14:35:49.943Z,0.40
2022-09-10T14:36:51.991Z,0.40
2022-09-10T14:37:54.075Z,0.40
2022-09-10T14:39:13.809Z,0.50
2022-09-10T14:40:17.997Z,0.60
2022-09-10T14:41:21.906Z,0.40
2022-09-10T14:42:31.834Z,0.60